createdAt,value
2019-05-10T12:07:35.048Z,90080.00
2019-05-10T12:08:27.945Z,76160.00
2019-05-10T12:09:26.889Z,32992.00
2019-05-10T12:10:26.886Z,37440.00
2019-05-10T12:11:33.247Z,40992.00
2019-05-10T12:12:44.852Z,31360.00
2019-05-10T12:13:27.844Z,22944.00
2019-05-10T12:14:26.834Z,27968.00
2019-05-10T12:15:26.832Z,26016.00
2019-05-10T12:16:26.810Z,24608.00
2019-05-10T12:17:26.800Z,26016.00
2019-05-10T12:18:27.253Z,24800.00
2019-05-10T12:19:36.879Z,20000.00
2019-05-10T12:20:44.820Z,16352.00
2019-05-10T12:21:27.774Z,33632.00
2019-05-10T12:23:31.090Z,68832.00
2019-05-10T12:24:46.235Z,65568.00
2019-05-10T12:25:42.699Z,40128.00
2019-05-10T12:26:05.557Z,84864.00
2019-05-10T12:27:41.807Z,20928.00
2019-05-10T12:28:29.982Z,18624.00
2019-05-10T12:29:27.669Z,67840.00
2019-05-10T12:30:29.542Z,17024.00
2019-05-10T12:31:27.651Z,17280.00
2019-05-10T12:32:26.956Z,40512.00
2019-05-10T12:33:27.890Z,71136.00
2019-05-10T12:34:26.616Z,86496.00
2019-05-10T12:35:35.530Z,88128.00
2019-05-10T12:36:27.830Z,86208.00
2019-05-10T12:37:26.585Z,87264.00
2019-05-10T12:38:29.827Z,84480.00
2019-05-10T12:39:27.562Z,85184.00
2019-05-10T12:40:26.560Z,81536.00
2019-05-10T12:41:26.553Z,64768.00
2019-05-10T12:42:26.528Z,16148.00
2019-05-10T12:43:26.521Z,25824.00
2019-05-10T12:44:26.507Z,15664.00
2019-05-10T12:45:26.507Z,15072.00
2019-05-10T12:46:26.486Z,14820.00
2019-05-10T12:47:26.475Z,15848.00
2019-05-10T12:48:26.464Z,15508.00
2019-05-10T12:49:26.452Z,15116.00
2019-05-10T12:50:26.452Z,13312.00
2019-05-10T12:51:26.432Z,13836.00
2019-05-10T12:52:28.580Z,15688.00
2019-05-10T12:53:26.410Z,14568.00
2019-05-10T12:54:26.401Z,14464.00
2019-05-10T12:55:26.397Z,12840.00
2019-05-10T12:56:26.381Z,11932.00
2019-05-10T12:57:26.365Z,11172.00
2019-05-10T12:58:26.355Z,14972.00
2019-05-10T12:59:29.643Z,12068.00
2019-05-10T13:00:27.340Z,10188.00
2019-05-10T13:01:31.750Z,9708.00
2019-05-10T13:02:27.309Z,9420.00
2019-05-10T13:03:31.587Z,9284.00
2019-05-10T13:04:39.655Z,9284.00
2019-05-10T13:05:32.076Z,9220.00
2019-05-10T13:06:27.275Z,9364.00
2019-05-10T13:07:26.264Z,9912.00
2019-05-10T13:08:26.246Z,9996.00
2019-05-10T13:09:38.202Z,9848.00
2019-05-10T13:10:27.347Z,8264.00
2019-05-10T13:11:27.123Z,9660.00
2019-05-10T13:12:26.201Z,9448.00
2019-05-10T13:13:29.810Z,10104.00
2019-05-10T13:14:29.102Z,9684.00
2019-05-10T13:15:31.087Z,9484.00
2019-05-10T13:16:27.156Z,9464.00
2019-05-10T13:17:26.146Z,9536.00
2019-05-10T13:18:48.235Z,9524.00
2019-05-10T13:19:27.123Z,9536.00
2019-05-10T13:20:30.864Z,9692.00
2019-05-10T13:21:30.130Z,9908.00
2019-05-10T13:22:26.108Z,9968.00
2019-05-10T13:23:26.079Z,10080.00
2019-05-10T13:24:26.069Z,10184.00
2019-05-10T13:25:26.067Z,10368.00
2019-05-10T13:26:26.047Z,10888.00
2019-05-10T13:27:26.036Z,11124.00
2019-05-10T13:28:26.041Z,11640.00
2019-05-10T13:29:26.016Z,11424.00
2019-05-10T13:30:28.169Z,11864.00
2019-05-10T13:31:25.992Z,11032.00
2019-05-10T13:32:25.981Z,13212.00
2019-05-10T13:33:28.825Z,14260.00
2019-05-10T13:34:25.962Z,13472.00
2019-05-10T13:35:25.949Z,15904.00
2019-05-10T13:36:30.678Z,17344.00
2019-05-10T13:37:26.927Z,16448.00
2019-05-10T13:38:25.922Z,13604.00
2019-05-10T13:39:27.605Z,13592.00
2019-05-10T13:40:25.894Z,10068.00
2019-05-10T13:41:26.509Z,12612.00
2019-05-10T13:42:25.871Z,16032.00
2019-05-10T13:43:28.144Z,15352.00
2019-05-10T13:44:25.848Z,16160.00
2019-05-10T13:45:25.838Z,15936.00
2019-05-10T13:46:25.837Z,16032.00
2019-05-10T13:47:25.818Z,16544.00
2019-05-10T13:48:26.797Z,16320.00
2019-05-10T13:49:25.793Z,15776.00
2019-05-10T13:50:25.789Z,15272.00
2019-05-10T13:51:25.782Z,14940.00
2019-05-10T13:52:29.978Z,11288.00
2019-05-10T13:53:26.755Z,21056.00
2019-05-10T13:54:31.328Z,45984.00
2019-05-10T13:55:26.730Z,31552.00
2019-05-10T13:56:25.730Z,60832.00
2019-05-10T13:57:25.705Z,14632.00
2019-05-10T13:58:25.697Z,9596.00
2019-05-10T13:59:25.699Z,12400.00
2019-05-10T14:00:33.115Z,62688.00
2019-05-10T14:01:26.675Z,54016.00
2019-05-10T14:02:33.055Z,50656.00
2019-05-10T14:03:26.641Z,27616.00
2019-05-10T14:04:25.632Z,20480.00
2019-05-10T14:05:25.620Z,50336.00
2019-05-10T14:06:25.636Z,67008.00
2019-05-10T14:07:25.599Z,69920.00
2019-05-10T14:08:25.587Z,72992.00
2019-05-10T14:09:25.590Z,41312.00
2019-05-10T14:10:25.576Z,9736.00
2019-05-10T14:11:25.565Z,65888.00
2019-05-10T14:12:25.739Z,54336.00
2019-05-10T14:13:25.535Z,38848.00
2019-05-10T14:14:26.733Z,19264.00
2019-05-10T14:15:25.512Z,14920.00
2019-05-10T14:16:25.517Z,14332.00
2019-05-10T14:17:25.513Z,30464.00
2019-05-10T14:18:25.480Z,13080.00
2019-05-10T14:19:26.176Z,33632.00
2019-05-10T14:20:27.573Z,49536.00
2019-05-10T14:21:25.450Z,8728.00
2019-05-10T14:22:25.445Z,9456.00
2019-05-10T14:23:29.012Z,7056.00
2019-05-10T14:24:26.418Z,6384.00
2019-05-10T14:25:29.727Z,5704.00
2019-05-10T14:26:26.394Z,5408.00
2019-05-10T14:27:29.941Z,4992.00
2019-05-10T14:28:26.370Z,4680.00
2019-05-10T14:29:33.309Z,4736.00
2019-05-10T14:30:26.348Z,4568.00
2019-05-10T14:31:25.340Z,4448.00
2019-05-10T14:32:25.338Z,4428.00
2019-05-10T14:33:25.318Z,5212.00
2019-05-10T14:34:25.305Z,12216.00
2019-05-10T14:35:25.304Z,12496.00
2019-05-10T14:36:25.284Z,43008.00
2019-05-10T14:37:25.281Z,46944.00
2019-05-10T14:38:25.262Z,34400.00
2019-05-10T14:39:25.253Z,42592.00
2019-05-10T14:40:30.649Z,51296.00
2019-05-10T14:41:26.227Z,36800.00
2019-05-10T14:42:30.915Z,38144.00
2019-05-10T14:43:26.210Z,34400.00
2019-05-10T14:44:25.202Z,25088.00
2019-05-10T14:45:25.185Z,15648.00
2019-05-10T14:46:25.175Z,14568.00
2019-05-10T14:47:25.173Z,13768.00
2019-05-10T14:48:28.666Z,13404.00
2019-05-10T14:49:26.141Z,12432.00
2019-05-10T14:50:28.060Z,12976.00
2019-05-10T14:51:40.401Z,10620.00
2019-05-10T14:52:26.116Z,8948.00
2019-05-10T14:53:27.076Z,13292.00
2019-05-10T14:54:25.087Z,20640.00
2019-05-10T14:55:28.197Z,16544.00
2019-05-10T14:56:26.067Z,18720.00
2019-05-10T14:57:25.069Z,11876.00
2019-05-10T14:58:25.045Z,15460.00
2019-05-10T14:59:25.070Z,10412.00
2019-05-10T15:00:25.022Z,10844.00
2019-05-10T15:01:25.012Z,25632.00
2019-05-10T15:02:25.171Z,10704.00
2019-05-10T15:03:25.001Z,8676.00
2019-05-10T15:05:25.967Z,6172.00
2019-05-10T15:06:24.958Z,5404.00
2019-05-10T15:07:24.945Z,5356.00
2019-05-10T15:08:24.942Z,5696.00
2019-05-10T15:09:24.925Z,6120.00
2019-05-10T15:10:24.914Z,6096.00
2019-05-10T15:11:26.587Z,6080.00
2019-05-10T15:12:25.888Z,6532.00
2019-05-10T15:13:26.111Z,7600.00
2019-05-10T15:14:24.869Z,29152.00
2019-05-10T15:15:24.859Z,25056.00
2019-05-10T15:16:27.224Z,15872.00
2019-05-10T15:17:29.824Z,13616.00
2019-05-10T15:18:24.835Z,13816.00
2019-05-10T15:19:27.298Z,12400.00
2019-05-10T15:20:25.801Z,13476.00
2019-05-10T15:21:24.790Z,10816.00
2019-05-10T15:22:24.985Z,9752.00
2019-05-10T15:23:24.778Z,9536.00
2019-05-10T15:24:24.757Z,7512.00
2019-05-10T15:25:24.748Z,6460.00
2019-05-10T15:26:24.737Z,5684.00
2019-05-10T15:27:24.726Z,5916.00
2019-05-10T15:28:24.726Z,5184.00
2019-05-10T15:29:24.922Z,24416.00
2019-05-10T15:30:24.694Z,20800.00
2019-05-10T15:31:29.269Z,6488.00
2019-05-10T15:32:25.669Z,24864.00
2019-05-10T15:33:24.657Z,3668.00
2019-05-10T15:34:24.653Z,3860.00
2019-05-10T15:35:24.634Z,4236.00
2019-05-10T15:36:29.846Z,4448.00
2019-05-10T15:37:25.613Z,4448.00
2019-05-10T15:38:24.607Z,4280.00
2019-05-10T15:39:28.627Z,4252.00
2019-05-10T15:40:25.581Z,5408.00
2019-05-10T15:41:24.580Z,5644.00
2019-05-10T15:42:24.558Z,6824.00
2019-05-10T15:43:24.551Z,7640.00
2019-05-10T15:44:30.605Z,7348.00
2019-05-10T15:45:25.525Z,7728.00
2019-05-10T15:46:36.264Z,7832.00
2019-05-10T15:47:25.501Z,7304.00
2019-05-10T15:48:24.502Z,6660.00
2019-05-10T15:49:24.658Z,6408.00
2019-05-10T15:50:24.470Z,6000.00
2019-05-10T15:51:35.742Z,5536.00
2019-05-10T15:52:25.447Z,5224.00
2019-05-10T15:53:25.718Z,5288.00
2019-05-10T15:54:24.443Z,5336.00
2019-05-10T15:55:27.406Z,5312.00
2019-05-10T15:56:24.411Z,4996.00
2019-05-10T15:57:24.409Z,5596.00
2019-05-10T15:58:24.390Z,7004.00
2019-05-10T15:59:24.417Z,7576.00
2019-05-10T16:00:25.490Z,6992.00
2019-05-10T16:01:27.180Z,6668.00
2019-05-10T16:02:24.339Z,6760.00
2019-05-10T16:03:24.324Z,6536.00
2019-05-10T16:04:24.322Z,6272.00
2019-05-10T16:05:42.076Z,5676.00
2019-05-10T16:06:25.291Z,4796.00
2019-05-10T16:07:24.281Z,4516.00
2019-05-10T16:08:30.379Z,4156.00
2019-05-10T16:09:25.269Z,3492.00
2019-05-10T16:10:28.297Z,3180.00
2019-05-10T16:11:25.238Z,3160.00
2019-05-10T16:12:24.225Z,3284.00
2019-05-10T16:13:25.171Z,3352.00
2019-05-10T16:14:24.218Z,3252.00
2019-05-10T16:15:24.191Z,3324.00
2019-05-10T16:16:24.181Z,3336.00
2019-05-10T16:17:24.240Z,3260.00
2019-05-10T16:18:24.168Z,3216.00
2019-05-10T16:19:24.146Z,3304.00
2019-05-10T16:20:24.145Z,3260.00
2019-05-10T16:21:24.122Z,2972.00
2019-05-10T16:22:25.363Z,2824.00
2019-05-10T16:23:25.098Z,2984.00
2019-05-10T16:24:26.236Z,3232.00
2019-05-10T16:25:24.086Z,3412.00
2019-05-10T16:26:24.583Z,3292.00
2019-05-10T16:27:24.058Z,2896.00
2019-05-10T16:28:24.042Z,2684.00
2019-05-10T16:29:24.030Z,2720.00
2019-05-10T16:30:24.028Z,2692.00
2019-05-10T16:31:24.030Z,2792.00
2019-05-10T16:32:29.444Z,2788.00
2019-05-10T16:33:24.985Z,2568.00
2019-05-10T16:34:26.451Z,2212.00
2019-05-10T16:35:38.071Z,2112.00
2019-05-10T16:36:28.413Z,2168.00
2019-05-10T16:37:23.943Z,2108.00
2019-05-10T16:38:23.954Z,1908.00
2019-05-10T16:39:23.937Z,1604.00
2019-05-10T16:40:23.918Z,1300.00
2019-05-10T16:41:26.770Z,1084.00
2019-05-10T16:42:27.757Z,1020.00
2019-05-10T16:43:24.982Z,1092.00
2019-05-10T16:44:23.867Z,1152.00
2019-05-10T16:45:23.864Z,1308.00
2019-05-10T16:46:23.844Z,1456.00
2019-05-10T16:47:23.833Z,1432.00
2019-05-10T16:48:23.831Z,1364.00
2019-05-10T16:49:23.809Z,1384.00
2019-05-10T16:50:26.180Z,1352.00
2019-05-10T16:51:24.788Z,1312.00
2019-05-10T16:52:25.843Z,1220.00
2019-05-10T16:53:23.766Z,1116.00
2019-05-10T16:54:25.421Z,1032.00
2019-05-10T16:55:23.755Z,1000.00
2019-05-10T16:56:23.733Z,996.00
2019-05-10T16:57:23.723Z,1044.00
2019-05-10T16:58:23.714Z,1168.00
2019-05-10T16:59:24.398Z,1324.00
2019-05-10T17:00:24.697Z,1480.00
2019-05-10T17:01:25.812Z,1664.00
2019-05-10T17:02:23.668Z,1876.00
2019-05-10T17:03:23.658Z,2092.00
2019-05-10T17:04:23.647Z,2408.00
2019-05-10T17:05:23.649Z,2752.00
2019-05-10T17:06:23.623Z,3132.00
2019-05-10T17:07:23.612Z,3660.00
2019-05-10T17:08:23.603Z,4384.00
2019-05-10T17:09:23.592Z,4984.00
2019-05-10T17:10:26.979Z,5368.00
2019-05-10T17:11:24.576Z,5660.00
2019-05-10T17:12:27.724Z,5720.00
2019-05-10T17:13:24.549Z,5420.00
2019-05-10T17:14:23.537Z,5144.00
2019-05-10T17:15:23.526Z,4548.00
2019-05-10T17:16:23.524Z,3964.00
2019-05-10T17:17:23.504Z,3480.00
2019-05-10T17:18:24.227Z,3048.00
2019-05-10T17:19:27.976Z,2588.00
2019-05-10T17:20:24.471Z,2560.00
2019-05-10T17:21:23.470Z,2552.00
2019-05-10T17:22:23.452Z,2520.00
2019-05-10T17:23:23.441Z,2520.00
2019-05-10T17:24:23.798Z,2476.00
2019-05-10T17:25:23.414Z,2412.00
2019-05-10T17:26:23.414Z,2372.00
2019-05-10T17:27:23.394Z,2416.00
2019-05-10T17:28:23.382Z,2460.00
2019-05-10T17:29:23.372Z,2384.00
2019-05-10T17:30:27.762Z,2476.00
2019-05-10T17:31:24.359Z,2432.00
2019-05-10T17:32:24.848Z,2340.00
2019-05-10T17:33:23.347Z,2156.00
2019-05-10T17:34:29.039Z,2004.00
2019-05-10T17:35:24.303Z,1860.00
2019-05-10T17:36:23.306Z,1776.00
2019-05-10T17:37:23.280Z,1708.00
2019-05-10T17:38:23.271Z,1624.00
2019-05-10T17:39:26.172Z,1596.00
2019-05-10T17:40:24.247Z,1560.00
2019-05-10T17:41:24.929Z,1544.00
2019-05-10T17:42:23.224Z,1528.00
2019-05-10T17:43:23.214Z,1500.00
2019-05-10T17:44:24.798Z,1476.00
2019-05-10T17:45:23.191Z,1468.00
2019-05-10T17:46:23.189Z,1484.00
2019-05-10T17:47:27.094Z,1520.00
2019-05-10T17:48:24.164Z,1528.00
2019-05-10T17:49:23.148Z,1588.00
2019-05-10T17:50:23.136Z,1580.00
2019-05-10T17:51:23.136Z,1608.00
2019-05-10T17:52:23.122Z,1632.00
2019-05-10T17:53:23.100Z,1684.00
2019-05-10T17:54:23.091Z,1536.00
2019-05-10T17:55:25.414Z,1460.00
2019-05-10T17:56:23.076Z,1328.00
2019-05-10T17:57:23.058Z,1256.00
2019-05-10T17:58:27.750Z,1224.00
2019-05-10T17:59:24.033Z,1200.00
2019-05-10T18:00:23.023Z,1164.00
2019-05-10T18:01:23.024Z,1128.00
2019-05-10T18:02:23.000Z,1108.00
2019-05-10T18:03:22.991Z,1116.00
2019-05-10T18:04:22.978Z,1112.00
2019-05-10T18:05:22.965Z,1104.00
2019-05-10T18:06:24.507Z,1096.00
2019-05-10T18:07:22.943Z,1060.00
2019-05-10T18:08:22.934Z,1060.00
2019-05-10T18:09:22.922Z,1076.00
2019-05-10T18:10:22.912Z,1052.00
2019-05-10T18:11:22.898Z,1064.00
2019-05-10T18:12:26.771Z,1092.00
2019-05-10T18:13:22.880Z,1048.00
2019-05-10T18:14:22.866Z,956.00
2019-05-10T18:15:27.569Z,904.00
2019-05-10T18:16:23.842Z,900.00
2019-05-10T18:17:25.868Z,900.00
2019-05-10T18:18:22.821Z,912.00
2019-05-10T18:19:24.830Z,920.00
2019-05-10T18:20:22.804Z,900.00
2019-05-10T18:21:24.274Z,872.00
2019-05-10T18:22:22.786Z,832.00
2019-05-10T18:23:23.044Z,832.00
2019-05-10T18:24:22.757Z,848.00
2019-05-10T18:25:22.743Z,876.00
2019-05-10T18:26:22.736Z,888.00
2019-05-10T18:27:22.732Z,884.00
2019-05-10T18:28:22.709Z,856.00
2019-05-10T18:29:22.698Z,804.00
2019-05-10T18:30:22.695Z,748.00
2019-05-10T18:31:22.686Z,688.00
2019-05-10T18:32:22.678Z,632.00
2019-05-10T18:33:22.672Z,572.00
2019-05-10T18:34:26.412Z,524.00
2019-05-10T18:35:23.631Z,476.00
2019-05-10T18:36:26.719Z,440.00
2019-05-10T18:37:23.621Z,412.00
2019-05-10T18:38:22.599Z,388.00
2019-05-10T18:39:22.589Z,372.00
2019-05-10T18:40:25.141Z,364.00
2019-05-10T18:41:23.567Z,372.00
2019-05-10T18:42:25.302Z,384.00
2019-05-10T18:43:23.541Z,388.00
2019-05-10T18:44:22.533Z,400.00
2019-05-10T18:45:23.391Z,368.00
2019-05-10T18:46:24.705Z,340.00
2019-05-10T18:47:22.509Z,312.00
2019-05-10T18:48:22.491Z,284.00
2019-05-10T18:49:22.480Z,264.00
2019-05-10T18:50:22.467Z,244.00
2019-05-10T18:51:24.215Z,228.00
2019-05-10T18:52:22.470Z,212.00
2019-05-10T18:53:22.433Z,204.00
2019-05-10T18:54:22.422Z,188.00
2019-05-10T18:55:22.426Z,172.00
2019-05-10T18:56:25.182Z,160.00
2019-05-10T18:57:23.423Z,144.00
2019-05-10T18:58:28.792Z,128.00
2019-05-10T18:59:23.366Z,120.00
2019-05-10T19:00:23.351Z,112.00
2019-05-10T19:01:22.355Z,100.00
2019-05-10T19:02:22.346Z,96.00
2019-05-10T19:03:22.320Z,88.00
2019-05-10T19:04:22.307Z,80.00
2019-05-10T19:05:25.187Z,72.00
2019-05-10T19:06:23.297Z,68.00
2019-05-10T19:07:22.288Z,60.00
2019-05-10T19:08:22.269Z,52.00
2019-05-10T19:09:22.255Z,48.00
2019-05-10T19:10:22.241Z,48.00
2019-05-10T19:11:22.252Z,44.00
2019-05-10T19:12:23.386Z,36.00
2019-05-10T19:13:22.667Z,32.00
2019-05-10T19:14:23.941Z,28.00
2019-05-10T19:15:23.189Z,24.00
2019-05-10T19:16:26.115Z,24.00
2019-05-10T19:17:23.178Z,24.00
2019-05-10T19:18:23.221Z,16.00
2019-05-10T19:19:22.140Z,20.00
2019-05-10T19:20:22.137Z,16.00
2019-05-10T19:21:24.962Z,12.00
2019-05-10T19:22:23.118Z,12.00
2019-05-10T19:23:22.104Z,12.00
2019-05-10T19:24:24.376Z,12.00
2019-05-10T19:25:23.074Z,8.00
2019-05-10T19:26:23.766Z,8.00
2019-05-10T19:27:25.029Z,4.00
2019-05-10T19:28:26.768Z,8.00
2019-05-10T19:29:23.027Z,4.00
2019-05-10T19:30:22.473Z,4.00
2019-05-10T19:31:22.024Z,4.00
2019-05-10T19:32:21.997Z,4.00
2019-05-10T19:33:21.994Z,0.00
2019-05-10T19:34:21.973Z,4.00
2019-05-10T19:35:21.969Z,4.00
2019-05-10T19:36:21.959Z,0.00
2019-05-10T19:37:30.134Z,0.00
2019-05-10T19:38:22.939Z,0.00
2019-05-10T19:39:21.917Z,0.00
2019-05-10T19:40:21.905Z,0.00
2019-05-10T19:41:25.623Z,0.00
2019-05-10T19:42:22.887Z,0.00
2019-05-10T19:43:23.811Z,0.00
2019-05-10T19:44:21.860Z,0.00
2019-05-10T19:45:21.854Z,0.00
2019-05-10T19:46:21.837Z,0.00
2019-05-10T19:47:21.826Z,0.00
2019-05-10T19:48:21.828Z,0.00
2019-05-10T19:49:21.807Z,0.00
2019-05-10T19:50:24.342Z,0.00
2019-05-10T19:51:23.019Z,0.00
2019-05-10T19:52:26.239Z,0.00
2019-05-10T19:53:22.768Z,0.00
2019-05-10T19:54:21.754Z,0.00
2019-05-10T19:55:21.899Z,0.00
2019-05-10T19:56:21.728Z,0.00
2019-05-10T19:57:21.719Z,0.00
2019-05-10T19:58:26.431Z,0.00
2019-05-10T19:59:22.731Z,0.00
2019-05-10T20:00:21.683Z,0.00
2019-05-10T20:01:21.693Z,0.00
2019-05-10T20:02:21.670Z,0.00
2019-05-10T20:06:48.055Z,0.00
2019-05-10T20:07:48.037Z,0.00
2019-05-10T20:08:48.039Z,0.00
2019-05-10T20:09:48.017Z,0.00
2019-05-10T20:10:48.005Z,0.00
2019-05-10T20:11:47.994Z,0.00
2019-05-10T20:12:47.980Z,0.00
2019-05-10T20:13:47.979Z,0.00
2019-05-10T20:14:47.959Z,0.00
2019-05-10T20:15:47.949Z,0.00
2019-05-10T20:16:52.614Z,0.00
2019-05-10T20:17:48.928Z,0.00
2019-05-10T20:18:47.919Z,0.00
2019-05-10T20:19:47.904Z,0.00
2019-05-10T20:20:47.892Z,0.00
2019-05-10T20:21:47.895Z,0.00
